Time;durP1;ratioP1;P1;durP2;ratioP2;P2;SDS_P1;SDS_P2;PMS_P1;PMS_P2;Temp;Humidity;BMP_temperature;BMP_pressure;BME280_temperature;BME280_humidity;BME280_pressure;Samples;Min_cycle;Max_cycle;Signal;HPM_P1;HPM_P2
2024/04/08 00:00:30;;;;;;;7.53;2.60;;;19.10;99.90;;;;;;5051028;28;20466;-72
2024/04/08 00:02:56;;;;;;;2.40;2.20;;;19.00;99.90;;;;;;5039584;28;20457;-71
2024/04/08 00:05:23;;;;;;;3.23;2.37;;;19.00;99.90;;;;;;5068086;28;20211;-72
2024/04/08 00:07:51;;;;;;;2.83;2.30;;;19.00;99.90;;;;;;5059040;28;20870;-71
2024/04/08 00:10:17;;;;;;;3.33;2.53;;;19.00;99.90;;;;;;5037449;28;20456;-73
2024/04/08 00:12:44;;;;;;;4.43;2.50;;;19.00;99.90;;;;;;5053410;28;20480;-73
2024/04/08 00:15:11;;;;;;;6.17;3.10;;;19.00;99.90;;;;;;5037475;28;20454;-73
2024/04/08 00:17:40;;;;;;;6.97;2.70;;;19.00;99.90;;;;;;5051882;28;20463;-73
2024/04/08 00:20:07;;;;;;;6.73;3.00;;;18.90;99.90;;;;;;5054662;28;20548;-72
2024/04/08 00:22:33;;;;;;;2.77;2.47;;;18.80;99.90;;;;;;5052286;28;20465;-73
2024/04/08 00:24:58;;;;;;;3.13;2.50;;;18.80;99.90;;;;;;5054231;28;20481;-73
2024/04/08 00:27:24;;;;;;;5.70;2.50;;;18.80;99.90;;;;;;5052148;28;20255;-73
2024/04/08 00:29:50;;;;;;;5.40;2.70;;;18.70;99.90;;;;;;5056100;28;20310;-74
2024/04/08 00:32:16;;;;;;;4.50;2.40;;;18.80;99.90;;;;;;5056223;28;20223;-72
2024/04/08 00:34:42;;;;;;;6.20;2.90;;;18.80;99.90;;;;;;5051457;28;20616;-73
2024/04/08 00:37:08;;;;;;;8.20;2.53;;;18.80;99.90;;;;;;5055551;28;20257;-73
2024/04/08 00:39:34;;;;;;;6.60;2.50;;;18.80;99.90;;;;;;5053244;28;20501;-73
2024/04/08 00:42:00;;;;;;;4.93;2.40;;;18.80;99.90;;;;;;5037915;28;20700;-72
2024/04/08 00:44:27;;;;;;;8.00;2.87;;;18.70;99.90;;;;;;5054331;28;20552;-74
2024/04/08 00:46:54;;;;;;;3.07;2.23;;;18.70;99.90;;;;;;5057650;28;20505;-72
2024/04/08 00:49:20;;;;;;;11.53;2.40;;;18.70;99.90;;;;;;5056824;28;20477;-74
2024/04/08 00:51:47;;;;;;;4.07;2.53;;;18.70;99.90;;;;;;5050308;28;20457;-73
2024/04/08 00:54:13;;;;;;;2.67;2.47;;;18.70;99.90;;;;;;5042286;28;20587;-72
2024/04/08 00:56:40;;;;;;;2.93;2.33;;;18.70;99.90;;;;;;5049672;28;21012;-73
2024/04/08 00:59:14;;;;;;;2.80;2.17;;;18.70;99.90;;;;;;5052619;28;20700;-72
2024/04/08 01:01:41;;;;;;;5.97;2.60;;;18.70;99.90;;;;;;5045283;28;20559;-73
2024/04/08 01:04:07;;;;;;;2.97;2.20;;;18.70;99.90;;;;;;5034075;28;20479;-73
2024/04/08 01:06:33;;;;;;;4.30;2.70;;;18.70;99.90;;;;;;5044492;28;20975;-73
2024/04/08 01:08:59;;;;;;;14.50;2.60;;;18.70;99.90;;;;;;5049307;28;20468;-73
2024/04/08 01:11:25;;;;;;;2.93;2.40;;;18.60;99.90;;;;;;5052415;28;20739;-73
2024/04/08 01:13:51;;;;;;;3.10;2.17;;;18.70;99.90;;;;;;5040190;28;20308;-73
2024/04/08 01:16:20;;;;;;;8.30;3.20;;;18.60;99.90;;;;;;5039356;28;21034;-72
2024/04/08 01:18:46;;;;;;;3.93;2.43;;;18.50;99.90;;;;;;5053600;28;20983;-73
2024/04/08 01:21:11;;;;;;;7.43;2.80;;;18.50;99.90;;;;;;5056790;28;20526;-71
2024/04/08 01:23:46;;;;;;;4.57;3.30;;;18.50;99.90;;;;;;5054611;28;20576;-72
2024/04/08 01:26:11;;;;;;;3.77;2.30;;;18.60;99.90;;;;;;5059019;28;20922;-72
2024/04/08 01:28:38;;;;;;;3.17;2.10;;;18.50;99.90;;;;;;5056257;28;20881;-71
2024/04/08 01:31:04;;;;;;;5.47;2.63;;;18.50;99.90;;;;;;5058255;28;20215;-73
2024/04/08 01:33:31;;;;;;;3.63;2.40;;;18.20;99.90;;;;;;5054677;28;20861;-72
2024/04/08 01:35:59;;;;;;;3.60;3.00;;;18.10;99.90;;;;;;5043904;28;20325;-72
2024/04/08 01:38:26;;;;;;;2.33;2.13;;;18.20;99.90;;;;;;5040449;28;20477;-71
2024/04/08 01:40:56;;;;;;;4.30;2.93;;;18.30;99.90;;;;;;5060494;28;20473;-71
2024/04/08 01:43:22;;;;;;;3.03;2.10;;;18.40;99.90;;;;;;5058375;28;20895;-71
2024/04/08 01:45:48;;;;;;;4.27;2.70;;;18.40;99.90;;;;;;5061184;28;20982;-71
2024/04/08 01:48:13;;;;;;;5.23;2.43;;;18.40;99.90;;;;;;5059214;28;20615;-73
2024/04/08 01:50:39;;;;;;;2.70;2.50;;;18.20;99.90;;;;;;5056096;28;20218;-73
2024/04/08 01:53:05;;;;;;;4.77;2.30;;;18.10;99.90;;;;;;5058109;28;20226;-72
2024/04/08 01:55:30;;;;;;;2.83;2.33;;;18.10;99.90;;;;;;5056783;28;20230;-72
2024/04/08 01:57:57;;;;;;;4.80;2.50;;;18.20;99.90;;;;;;5058344;28;20246;-72
2024/04/08 02:00:23;;;;;;;4.77;2.40;;;18.30;99.90;;;;;;5057223;28;20211;-72
2024/04/08 02:02:49;;;;;;;3.00;2.30;;;18.30;99.90;;;;;;5057264;28;20465;-71
2024/04/08 02:05:15;;;;;;;3.53;2.47;;;18.30;99.90;;;;;;5056298;28;20521;-71
2024/04/08 02:07:41;;;;;;;2.70;2.13;;;18.30;99.90;;;;;;5055016;28;20223;-72
2024/04/08 02:10:07;;;;;;;3.87;2.90;;;18.30;99.90;;;;;;5059138;28;20880;-72
2024/04/08 02:12:32;;;;;;;3.43;2.80;;;18.30;99.90;;;;;;5052251;28;20483;-72
2024/04/08 02:14:58;;;;;;;5.20;2.27;;;18.30;99.90;;;;;;5055006;28;20837;-72
2024/04/08 02:17:24;;;;;;;3.23;2.50;;;18.20;99.90;;;;;;5053614;28;20224;-72
2024/04/08 02:19:49;;;;;;;4.60;2.80;;;18.30;99.90;;;;;;5042488;28;20257;-75
2024/04/08 02:22:15;;;;;;;3.90;2.40;;;18.20;99.90;;;;;;5055193;28;20211;-71
2024/04/08 02:24:41;;;;;;;5.60;2.70;;;18.30;99.90;;;;;;5039433;28;20373;-73
2024/04/08 02:27:08;;;;;;;4.93;2.37;;;18.30;99.90;;;;;;5057216;28;20223;-69
2024/04/08 02:29:34;;;;;;;4.87;2.77;;;18.30;99.90;;;;;;5054900;28;20215;-73
2024/04/08 02:32:00;;;;;;;12.57;4.00;;;18.20;99.90;;;;;;5056156;28;20466;-71
2024/04/08 02:34:26;;;;;;;4.53;2.47;;;18.20;99.90;;;;;;5054864;28;20810;-73
2024/04/08 02:36:51;;;;;;;4.10;2.27;;;18.20;99.90;;;;;;5042188;28;20222;-72
2024/04/08 02:39:17;;;;;;;5.10;2.60;;;18.20;99.90;;;;;;5059283;28;20246;-72
2024/04/08 02:41:43;;;;;;;5.00;2.87;;;18.20;99.90;;;;;;5055183;28;20227;-72
2024/04/08 02:44:09;;;;;;;6.27;2.80;;;18.20;99.90;;;;;;5058227;28;20215;-72
2024/04/08 02:46:34;;;;;;;6.47;3.23;;;18.20;99.90;;;;;;5054483;28;20238;-73
2024/04/08 02:49:00;;;;;;;7.60;3.10;;;18.20;99.90;;;;;;5058147;28;20219;-73
2024/04/08 02:51:25;;;;;;;3.50;2.93;;;18.20;99.90;;;;;;5050945;28;20223;-72
2024/04/08 02:53:51;;;;;;;4.60;2.70;;;18.20;99.90;;;;;;5055857;28;20227;-73
2024/04/08 02:56:17;;;;;;;3.10;2.80;;;18.10;99.90;;;;;;5056786;28;20218;-72
2024/04/08 02:58:46;;;;;;;3.50;3.20;;;18.00;99.90;;;;;;5056998;28;20250;-73
2024/04/08 03:01:12;;;;;;;5.53;2.97;;;18.00;99.90;;;;;;5057608;28;20212;-71
2024/04/08 03:03:38;;;;;;;7.07;3.17;;;18.00;99.90;;;;;;5053294;28;20449;-72
2024/04/08 03:06:08;;;;;;;3.77;2.97;;;17.90;99.90;;;;;;5040950;28;20835;-73
2024/04/08 03:08:35;;;;;;;3.50;2.53;;;18.00;99.90;;;;;;5056445;28;20223;-72
2024/04/08 03:11:02;;;;;;;2.37;2.17;;;18.00;99.90;;;;;;5056891;28;20548;-72
2024/04/08 03:13:28;;;;;;;4.50;2.60;;;18.10;99.90;;;;;;5036757;28;20468;-71
2024/04/08 03:15:57;;;;;;;4.20;2.60;;;18.00;99.90;;;;;;5056114;28;20471;-71
2024/04/08 03:18:23;;;;;;;4.50;2.90;;;18.00;99.90;;;;;;5056393;28;20466;-73
2024/04/08 03:20:55;;;;;;;7.40;3.67;;;18.00;99.90;;;;;;5039477;28;20479;-72
2024/04/08 03:23:21;;;;;;;3.13;2.63;;;17.90;99.90;;;;;;5056009;28;20889;-72
2024/04/08 03:25:47;;;;;;;4.53;2.67;;;17.90;99.90;;;;;;5052983;28;20480;-72
2024/04/08 03:28:13;;;;;;;5.80;3.07;;;17.80;99.90;;;;;;5055798;28;20469;-72
2024/04/08 03:30:38;;;;;;;8.10;2.97;;;17.80;99.90;;;;;;5053620;28;20304;-71
2024/04/08 03:33:04;;;;;;;4.47;2.67;;;17.80;99.90;;;;;;5057792;28;20593;-72
2024/04/08 03:35:30;;;;;;;4.83;2.37;;;17.80;99.90;;;;;;5037768;28;20219;-73
2024/04/08 03:37:55;;;;;;;3.80;2.50;;;17.80;99.90;;;;;;5052745;28;20268;-72
2024/04/08 03:40:23;;;;;;;3.63;2.40;;;17.90;99.90;;;;;;5056301;28;20689;-72
2024/04/08 03:42:49;;;;;;;6.20;2.93;;;17.90;99.90;;;;;;5057115;28;20248;-71
2024/04/08 03:45:15;;;;;;;4.83;2.63;;;17.90;99.90;;;;;;5056149;28;20473;-73
2024/04/08 03:47:41;;;;;;;4.57;3.13;;;17.90;99.90;;;;;;5053403;28;20535;-72
2024/04/08 03:50:07;;;;;;;4.20;3.30;;;17.80;99.90;;;;;;5053127;28;20215;-71
2024/04/08 03:52:33;;;;;;;3.63;2.97;;;17.80;99.90;;;;;;5051595;28;20219;-72
2024/04/08 03:54:59;;;;;;;5.47;2.90;;;17.80;99.90;;;;;;5055858;28;20519;-72
2024/04/08 03:57:25;;;;;;;3.77;2.77;;;17.70;99.90;;;;;;5050892;28;20221;-72
2024/04/08 03:59:50;;;;;;;3.80;2.60;;;17.70;99.90;;;;;;5055872;28;20674;-72
2024/04/08 04:02:16;;;;;;;2.43;2.20;;;17.70;99.90;;;;;;5037014;28;20304;-73
2024/04/08 04:04:41;;;;;;;4.77;2.40;;;17.60;99.90;;;;;;5054332;28;20313;-72
2024/04/08 04:07:07;;;;;;;5.50;2.80;;;17.50;99.90;;;;;;5055762;28;20212;-70
2024/04/08 04:09:33;;;;;;;2.07;1.97;;;17.50;99.90;;;;;;5054586;28;20242;-72
2024/04/08 04:11:58;;;;;;;4.97;2.27;;;17.50;99.90;;;;;;5056520;28;20235;-72
2024/04/08 04:14:24;;;;;;;6.10;2.60;;;17.40;99.90;;;;;;5052510;28;20227;-72
2024/04/08 04:16:51;;;;;;;4.17;1.93;;;17.40;99.90;;;;;;5055265;28;20287;-72
2024/04/08 04:19:17;;;;;;;4.87;2.60;;;17.40;99.90;;;;;;5057221;28;20361;-72
2024/04/08 04:21:43;;;;;;;7.27;2.27;;;17.40;99.90;;;;;;5052435;28;20977;-72
2024/04/08 04:24:08;;;;;;;5.10;2.63;;;17.50;99.90;;;;;;5056138;28;20464;-72
2024/04/08 04:26:34;;;;;;;3.43;2.77;;;17.50;99.90;;;;;;5052005;28;20223;-72
2024/04/08 04:28:59;;;;;;;3.37;3.07;;;17.50;99.90;;;;;;5059876;28;20638;-72
2024/04/08 04:31:25;;;;;;;8.10;4.23;;;17.50;99.90;;;;;;5050829;28;20226;-72
2024/04/08 04:33:51;;;;;;;6.47;3.87;;;17.50;99.90;;;;;;5059307;28;20695;-72
2024/04/08 04:36:17;;;;;;;3.50;3.20;;;17.50;99.90;;;;;;5057528;28;20477;-72
2024/04/08 04:38:42;;;;;;;4.50;3.20;;;17.50;99.90;;;;;;5052702;28;20228;-74
2024/04/08 04:41:09;;;;;;;4.40;2.93;;;17.40;99.90;;;;;;5058519;28;20215;-72
2024/04/08 04:43:35;;;;;;;4.47;3.17;;;17.40;99.90;;;;;;5053167;28;20210;-73
2024/04/08 04:46:01;;;;;;;4.23;2.50;;;17.40;99.90;;;;;;5058064;28;20473;-72
2024/04/08 04:48:27;;;;;;;5.80;2.67;;;17.10;99.90;;;;;;5053800;28;20351;-72
2024/04/08 04:50:53;;;;;;;5.23;2.50;;;17.00;99.90;;;;;;5040982;28;20219;-73
2024/04/08 04:53:18;;;;;;;2.93;2.40;;;17.00;99.90;;;;;;5039031;28;20211;-73
2024/04/08 04:55:52;;;;;;;9.40;3.20;;;17.00;99.90;;;;;;5056630;28;20522;-73
2024/04/08 04:58:17;;;;;;;4.03;2.50;;;17.10;99.90;;;;;;5060854;28;20811;-70
2024/04/08 05:00:43;;;;;;;3.30;2.30;;;17.10;99.90;;;;;;5058064;28;20544;-72
2024/04/08 05:03:09;;;;;;;5.27;2.30;;;17.10;99.90;;;;;;5059107;28;20242;-73
2024/04/08 05:05:34;;;;;;;4.63;2.53;;;17.10;99.90;;;;;;5055902;28;20623;-72
2024/04/08 05:08:00;;;;;;;4.77;2.10;;;17.10;99.90;;;;;;5043093;28;20226;-73
2024/04/08 05:10:26;;;;;;;2.40;1.90;;;17.00;99.90;;;;;;5041731;28;20219;-72
2024/04/08 05:12:52;;;;;;;2.40;2.17;;;17.00;99.90;;;;;;5060362;28;20476;-73
2024/04/08 05:15:18;;;;;;;2.70;2.50;;;17.00;99.90;;;;;;5060323;28;20279;-72
2024/04/08 05:17:44;;;;;;;2.60;1.70;;;17.00;99.90;;;;;;5056379;28;20218;-71
2024/04/08 05:20:09;;;;;;;10.20;2.50;;;17.00;99.90;;;;;;5041308;28;20262;-72
2024/04/08 05:22:36;;;;;;;3.43;3.10;;;17.00;99.90;;;;;;5058242;28;20207;-72
2024/04/08 05:25:01;;;;;;;3.47;2.33;;;17.00;99.90;;;;;;5057648;28;20230;-71
2024/04/08 05:27:27;;;;;;;4.80;2.50;;;17.00;99.90;;;;;;5058200;28;20477;-72
2024/04/08 05:29:53;;;;;;;2.60;2.10;;;16.90;99.90;;;;;;5057904;28;20242;-72
2024/04/08 05:32:18;;;;;;;1.83;1.73;;;16.90;99.90;;;;;;5051679;28;20246;-72
2024/04/08 05:34:44;;;;;;;3.93;2.00;;;16.90;99.90;;;;;;5052183;28;20223;-72
2024/04/08 05:37:10;;;;;;;3.63;2.47;;;16.80;99.90;;;;;;5053285;28;20851;-71
2024/04/08 05:39:35;;;;;;;2.83;2.13;;;16.80;99.90;;;;;;5053649;28;20211;-72
2024/04/08 05:42:01;;;;;;;2.10;1.90;;;16.70;99.90;;;;;;5056899;28;20223;-72
2024/04/08 05:44:26;;;;;;;6.10;1.80;;;16.70;99.90;;;;;;5036907;28;20212;-71
2024/04/08 05:46:52;;;;;;;2.33;2.13;;;16.70;99.90;;;;;;5043506;28;20238;-73
2024/04/08 05:49:18;;;;;;;5.47;2.40;;;16.70;99.90;;;;;;5058175;28;20226;-73
2024/04/08 05:51:43;;;;;;;2.60;2.27;;;16.70;99.90;;;;;;5053616;28;20241;-72
2024/04/08 05:54:09;;;;;;;4.23;1.93;;;16.70;99.90;;;;;;5058977;28;20344;-71
2024/04/08 05:56:35;;;;;;;3.20;2.10;;;16.70;99.90;;;;;;5055257;28;20214;-72
2024/04/08 05:59:01;;;;;;;5.20;2.40;;;16.70;99.90;;;;;;5060770;28;20476;-72
2024/04/08 06:01:27;;;;;;;3.60;2.17;;;16.70;99.90;;;;;;5052068;28;20465;-72
2024/04/08 06:03:53;;;;;;;3.53;2.40;;;16.70;99.90;;;;;;5058572;28;20286;-71
2024/04/08 06:06:19;;;;;;;8.73;2.20;;;16.70;99.90;;;;;;5055572;28;20553;-72
2024/04/08 06:08:47;;;;;;;6.10;2.20;;;16.70;99.90;;;;;;5052633;28;20219;-72
2024/04/08 06:11:12;;;;;;;4.00;2.10;;;16.70;99.90;;;;;;5053839;28;20215;-73
2024/04/08 06:13:38;;;;;;;2.50;2.00;;;16.70;99.90;;;;;;5052881;28;20975;-73
2024/04/08 06:16:04;;;;;;;2.17;1.97;;;16.60;99.90;;;;;;5055723;28;20700;-71
2024/04/08 06:18:29;;;;;;;4.03;2.50;;;16.70;99.90;;;;;;5036453;28;20235;-72
2024/04/08 06:20:56;;;;;;;6.63;2.20;;;16.60;99.90;;;;;;5059770;28;20229;-71
2024/04/08 06:23:22;;;;;;;10.23;2.53;;;16.60;99.90;;;;;;5057999;28;20215;-72
2024/04/08 06:25:57;;;;;;;2.33;1.80;;;16.70;99.90;;;;;;5054277;28;20473;-72
2024/04/08 06:28:22;;;;;;;2.63;2.00;;;16.70;99.90;;;;;;5057729;28;20542;-73
2024/04/08 06:30:48;;;;;;;4.30;2.00;;;16.70;99.90;;;;;;5055423;28;20446;-72
2024/04/08 06:33:14;;;;;;;2.23;2.00;;;16.80;99.90;;;;;;5056450;28;20223;-72
2024/04/08 06:35:44;;;;;;;3.80;2.00;;;16.70;99.90;;;;;;5054223;28;20357;-71
2024/04/08 06:38:10;;;;;;;3.90;2.20;;;16.80;99.90;;;;;;5057071;28;20215;-72
2024/04/08 06:40:36;;;;;;;2.90;1.80;;;16.80;99.90;;;;;;5050622;28;21070;-73
2024/04/08 06:43:01;;;;;;;2.33;1.80;;;16.80;99.90;;;;;;5058599;28;20544;-72
2024/04/08 06:45:27;;;;;;;3.03;2.57;;;16.80;99.90;;;;;;5052774;28;20203;-73
2024/04/08 06:47:53;;;;;;;2.90;2.10;;;16.90;99.90;;;;;;5058128;28;20227;-72
2024/04/08 06:50:18;;;;;;;4.57;2.70;;;16.90;99.90;;;;;;5038334;28;20215;-72
2024/04/08 06:52:44;;;;;;;10.83;2.20;;;17.00;99.90;;;;;;5053482;28;20272;-72
2024/04/08 06:55:10;;;;;;;3.17;2.03;;;17.00;99.90;;;;;;5039625;28;20215;-73
2024/04/08 06:57:35;;;;;;;2.40;2.20;;;17.00;99.90;;;;;;5051912;28;20296;-71
2024/04/08 07:00:01;;;;;;;4.33;2.23;;;17.00;99.90;;;;;;5057069;28;20215;-72
2024/04/08 07:02:27;;;;;;;7.20;2.73;;;17.00;99.90;;;;;;5053620;28;20231;-70
2024/04/08 07:04:52;;;;;;;4.53;2.50;;;17.00;99.90;;;;;;5058333;28;20227;-72
2024/04/08 07:07:18;;;;;;;3.50;1.83;;;17.00;99.90;;;;;;5057266;28;20231;-73
2024/04/08 07:09:44;;;;;;;3.10;2.00;;;17.10;99.90;;;;;;5055080;28;20280;-73
2024/04/08 07:12:10;;;;;;;3.40;2.27;;;17.10;99.90;;;;;;5055855;28;20263;-71
2024/04/08 07:14:35;;;;;;;1.90;1.70;;;17.10;99.90;;;;;;5050068;28;20226;-72
2024/04/08 07:17:01;;;;;;;4.37;2.10;;;17.10;99.90;;;;;;5056973;28;20712;-71
2024/04/08 07:19:26;;;;;;;2.43;1.83;;;17.10;99.90;;;;;;5050040;28;20248;-71
2024/04/08 07:21:52;;;;;;;4.00;2.33;;;17.20;99.90;;;;;;5055100;28;20818;-73
2024/04/08 07:24:18;;;;;;;3.70;1.73;;;17.20;99.90;;;;;;5055500;28;20218;-74
2024/04/08 07:26:46;;;;;;;4.77;2.27;;;17.20;99.90;;;;;;5050518;28;20319;-72
2024/04/08 07:29:12;;;;;;;8.20;1.97;;;17.30;99.90;;;;;;5039445;28;20588;-72
2024/04/08 07:31:38;;;;;;;4.63;2.10;;;17.40;99.90;;;;;;5036725;28;20558;-72
2024/04/08 07:34:03;;;;;;;6.17;2.10;;;17.50;99.90;;;;;;5055503;28;20219;-72
2024/04/08 07:36:29;;;;;;;8.03;2.43;;;17.50;99.90;;;;;;5052428;28;20273;-70
2024/04/08 07:38:54;;;;;;;3.30;2.30;;;17.60;99.90;;;;;;5047674;28;20215;-72
2024/04/08 07:41:21;;;;;;;5.77;2.33;;;17.70;99.90;;;;;;5053476;28;20653;-72
2024/04/08 07:43:47;;;;;;;4.23;1.90;;;17.70;99.90;;;;;;5051002;28;20302;-72
2024/04/08 07:46:14;;;;;;;1.93;1.83;;;17.80;99.90;;;;;;5039142;28;20556;-71
2024/04/08 07:48:40;;;;;;;2.40;1.70;;;17.80;99.90;;;;;;5053684;28;20215;-73
2024/04/08 07:51:06;;;;;;;5.50;1.93;;;17.90;99.90;;;;;;5054339;28;20456;-73
2024/04/08 07:53:36;;;;;;;6.20;2.03;;;18.00;99.90;;;;;;5033134;28;20203;-72
2024/04/08 07:56:01;;;;;;;4.57;1.90;;;18.10;99.90;;;;;;5054000;28;20219;-72
2024/04/08 07:58:29;;;;;;;2.70;1.83;;;18.20;99.90;;;;;;5049849;28;20979;-72
2024/04/08 08:00:59;;;;;;;2.67;2.00;;;18.30;99.90;;;;;;5053311;28;20826;-71
2024/04/08 08:03:27;;;;;;;4.30;1.80;;;18.30;99.90;;;;;;5048999;28;20959;-73
2024/04/08 08:05:53;;;;;;;5.33;2.57;;;18.40;99.90;;;;;;5056097;28;20453;-72
2024/04/08 08:08:19;;;;;;;4.87;2.13;;;18.50;99.90;;;;;;5068090;28;20222;-72
2024/04/08 08:10:45;;;;;;;4.90;1.77;;;18.50;99.90;;;;;;5052605;28;20449;-73
2024/04/08 08:13:11;;;;;;;5.97;2.07;;;18.60;99.90;;;;;;5035447;28;20344;-73
2024/04/08 08:15:37;;;;;;;4.00;1.83;;;18.60;99.90;;;;;;5049285;28;20485;-73
2024/04/08 08:18:03;;;;;;;6.80;1.93;;;18.70;99.90;;;;;;5055259;28;20223;-72
2024/04/08 08:20:30;;;;;;;4.50;2.00;;;18.80;99.90;;;;;;5051777;28;20211;-72
2024/04/08 08:23:00;;;;;;;4.67;1.73;;;19.00;99.90;;;;;;5055278;28;20210;-72
2024/04/08 08:25:29;;;;;;;3.20;1.80;;;19.10;99.90;;;;;;5031680;28;20461;-73
2024/04/08 08:27:55;;;;;;;4.00;2.57;;;19.10;99.90;;;;;;5027792;28;20542;-70
2024/04/08 08:30:21;;;;;;;2.63;2.20;;;19.30;99.90;;;;;;5056409;28;20461;-72
2024/04/08 08:32:50;;;;;;;3.80;1.80;;;19.50;99.90;;;;;;5056906;28;20230;-72
2024/04/08 08:35:16;;;;;;;3.10;1.70;;;19.60;99.90;;;;;;5059293;28;20219;-72
2024/04/08 08:37:41;;;;;;;7.47;2.00;;;19.70;99.90;;;;;;5057722;28;20475;-73
2024/04/08 08:40:07;;;;;;;3.47;2.33;;;20.00;99.90;;;;;;5062840;28;20595;-71
2024/04/08 08:42:33;;;;;;;4.63;1.93;;;20.10;99.90;;;;;;5041199;28;20215;-72
2024/04/08 08:45:02;;;;;;;5.13;2.23;;;20.10;99.90;;;;;;5059780;28;20837;-71
2024/04/08 08:47:27;;;;;;;7.73;2.30;;;20.10;99.90;;;;;;5056085;28;20782;-73
2024/04/08 08:49:54;;;;;;;6.03;2.07;;;20.20;99.90;;;;;;5060423;28;20469;-73
2024/04/08 08:52:24;;;;;;;2.40;1.80;;;20.30;99.90;;;;;;5043786;28;20264;-72
2024/04/08 08:54:52;;;;;;;4.10;2.17;;;20.40;99.90;;;;;;5062601;28;20473;-73
2024/04/08 08:57:17;;;;;;;3.53;1.73;;;20.60;99.90;;;;;;5058862;28;20468;-73
2024/04/08 08:59:45;;;;;;;4.43;2.40;;;20.80;99.90;;;;;;5057929;28;20809;-72
2024/04/08 09:02:13;;;;;;;6.10;2.20;;;21.00;99.90;;;;;;5060335;28;20218;-73
2024/04/08 09:04:40;;;;;;;7.53;3.03;;;21.10;99.90;;;;;;5055881;28;20480;-72
2024/04/08 09:07:07;;;;;;;2.50;2.10;;;21.30;99.90;;;;;;5057775;28;20496;-73
2024/04/08 09:09:32;;;;;;;4.30;2.13;;;21.50;99.90;;;;;;5054250;28;20993;-72
2024/04/08 09:11:58;;;;;;;6.33;2.33;;;21.50;99.90;;;;;;5043530;28;20461;-73
2024/04/08 09:14:24;;;;;;;6.90;2.67;;;21.60;99.90;;;;;;5058218;28;20218;-72
2024/04/08 09:16:51;;;;;;;4.50;2.17;;;21.70;99.90;;;;;;5060002;28;20226;-75
2024/04/08 09:19:17;;;;;;;2.57;2.20;;;21.80;99.90;;;;;;5057776;28;20210;-71
2024/04/08 09:21:43;;;;;;;2.60;1.70;;;21.90;99.90;;;;;;5054884;28;20817;-72
2024/04/08 09:24:09;;;;;;;5.43;2.23;;;21.90;99.90;;;;;;5058876;28;20232;-73
2024/04/08 09:26:35;;;;;;;2.60;1.70;;;22.10;99.90;;;;;;5052114;28;20223;-72
2024/04/08 09:29:01;;;;;;;6.00;2.30;;;22.30;99.90;;;;;;5041631;28;20214;-73
2024/04/08 09:31:30;;;;;;;3.47;1.93;;;22.30;99.90;;;;;;5031549;28;20207;-72
2024/04/08 09:33:56;;;;;;;3.97;2.60;;;22.30;99.90;;;;;;5044178;28;20457;-71
2024/04/08 09:36:23;;;;;;;4.40;2.00;;;22.40;99.90;;;;;;5060670;28;20825;-71
2024/04/08 09:38:50;;;;;;;4.20;1.80;;;22.40;99.90;;;;;;5059411;28;21121;-73
2024/04/08 09:41:17;;;;;;;3.90;2.20;;;22.60;99.90;;;;;;5043307;28;20514;-72
2024/04/08 09:43:44;;;;;;;3.90;2.17;;;22.70;99.90;;;;;;5052860;28;20468;-73
2024/04/08 09:46:11;;;;;;;6.10;2.50;;;22.90;99.90;;;;;;5058793;28;21021;-72
2024/04/08 09:48:38;;;;;;;5.40;2.20;;;23.00;99.90;;;;;;5055604;28;20460;-73
2024/04/08 09:51:06;;;;;;;3.70;2.07;;;23.00;99.90;;;;;;5060374;28;21213;-71
2024/04/08 09:53:33;;;;;;;7.00;1.90;;;23.10;99.90;;;;;;5053940;28;20841;-74
2024/04/08 09:56:13;;;;;;;4.13;2.00;;;23.20;99.90;;;;;;5055278;28;20580;-72
2024/04/08 09:58:40;;;;;;;4.23;2.00;;;23.30;99.90;;;;;;5054634;28;20459;-72
2024/04/08 10:01:06;;;;;;;3.33;1.77;;;23.20;99.90;;;;;;5058195;28;20457;-72
2024/04/08 10:03:48;;;;;;;5.13;1.97;;;23.30;99.90;;;;;;5034118;28;20476;-73
2024/04/08 10:06:14;;;;;;;3.60;1.60;;;23.40;99.90;;;;;;5057524;28;20478;-73
2024/04/08 10:08:41;;;;;;;3.07;2.30;;;23.40;99.90;;;;;;5039050;28;20985;-73
2024/04/08 10:11:07;;;;;;;3.97;1.83;;;23.60;99.90;;;;;;5060129;28;20679;-72
2024/04/08 10:13:43;;;;;;;4.37;3.37;;;23.50;99.90;;;;;;5048842;28;21027;-72
2024/04/08 10:16:13;;;;;;;6.60;2.10;;;23.40;99.90;;;;;;5053731;28;20468;-72
2024/04/08 10:18:52;;;;;;;7.10;2.60;;;23.30;99.90;;;;;;5054811;28;20467;-72
2024/04/08 10:21:19;;;;;;;4.47;2.17;;;23.40;99.90;;;;;;5053756;28;20464;-73
2024/04/08 10:23:45;;;;;;;2.90;2.00;;;23.60;99.90;;;;;;5052405;28;21324;-73
2024/04/08 10:26:13;;;;;;;3.60;2.00;;;23.70;99.90;;;;;;5044696;28;20477;-73
2024/04/08 10:28:40;;;;;;;7.17;2.40;;;23.90;99.90;;;;;;5062501;28;20214;-72
2024/04/08 10:31:06;;;;;;;6.73;1.83;;;23.90;99.90;;;;;;5062490;28;20464;-73
2024/04/08 10:33:32;;;;;;;6.03;2.00;;;23.90;99.90;;;;;;5060911;28;20445;-72
2024/04/08 10:35:57;;;;;;;4.47;2.87;;;24.10;99.90;;;;;;5060900;28;20223;-72
2024/04/08 10:38:23;;;;;;;3.40;2.13;;;24.20;99.90;;;;;;5046032;28;20212;-72
2024/04/08 10:40:49;;;;;;;4.83;2.27;;;24.10;99.90;;;;;;5063548;28;20222;-72
2024/04/08 10:43:14;;;;;;;3.40;1.73;;;24.10;99.90;;;;;;5061496;28;20210;-73
2024/04/08 10:45:40;;;;;;;5.00;3.70;;;24.10;99.90;;;;;;5060669;28;20218;-73
2024/04/08 10:48:13;;;;;;;7.00;2.67;;;24.20;99.90;;;;;;5062115;28;20218;-72
2024/04/08 10:50:38;;;;;;;4.20;2.10;;;24.30;99.90;;;;;;5058130;28;20481;-73
2024/04/08 10:53:04;;;;;;;5.33;2.30;;;24.30;99.90;;;;;;5060803;28;20484;-73
2024/04/08 10:55:30;;;;;;;5.37;2.40;;;24.40;99.90;;;;;;5044567;28;20212;-73
2024/04/08 10:57:56;;;;;;;3.13;2.50;;;24.30;99.90;;;;;;5061127;28;20692;-71
2024/04/08 11:00:21;;;;;;;6.53;2.70;;;24.20;99.90;;;;;;5065063;28;20214;-73
2024/04/08 11:02:47;;;;;;;5.27;3.57;;;24.30;99.90;;;;;;5060657;28;20215;-72
2024/04/08 11:05:13;;;;;;;2.20;2.00;;;24.20;99.90;;;;;;5060406;28;20234;-74
2024/04/08 11:07:39;;;;;;;4.97;2.50;;;24.20;99.90;;;;;;5061443;28;20692;-73
2024/04/08 11:10:11;;;;;;;2.57;2.37;;;24.10;99.90;;;;;;5063279;28;20604;-74
2024/04/08 11:12:37;;;;;;;5.47;2.47;;;24.20;99.90;;;;;;5061153;28;20219;-73
2024/04/08 11:15:04;;;;;;;3.10;2.03;;;24.40;99.90;;;;;;5063400;28;21012;-73
2024/04/08 11:17:30;;;;;;;5.53;2.50;;;24.50;99.90;;;;;;5061704;28;20272;-74
2024/04/08 11:19:57;;;;;;;5.67;2.17;;;24.80;99.90;;;;;;5058681;28;20461;-73
2024/04/08 11:22:23;;;;;;;6.60;2.40;;;25.00;99.90;;;;;;5060708;28;20306;-71
2024/04/08 11:24:48;;;;;;;5.47;2.67;;;25.00;99.90;;;;;;5046471;28;20532;-74
2024/04/08 11:27:16;;;;;;;3.77;3.20;;;25.00;99.90;;;;;;5061523;28;20322;-73
2024/04/08 11:29:44;;;;;;;3.03;2.57;;;25.20;99.90;;;;;;5043890;28;20218;-73
2024/04/08 11:32:13;;;;;;;6.20;3.20;;;25.50;99.90;;;;;;5058808;28;20473;-74
2024/04/08 11:34:39;;;;;;;5.83;2.73;;;25.90;99.90;;;;;;5061416;28;20839;-73
2024/04/08 11:37:12;;;;;;;4.97;2.80;;;26.00;99.90;;;;;;5061944;28;20509;-74
2024/04/08 11:39:40;;;;;;;7.90;2.20;;;26.10;99.90;;;;;;5061331;28;20919;-74
2024/04/08 11:42:07;;;;;;;2.60;2.20;;;26.00;99.90;;;;;;5059869;28;20469;-73
2024/04/08 11:44:34;;;;;;;5.60;3.83;;;26.00;99.90;;;;;;5057770;28;20457;-73
2024/04/08 11:47:00;;;;;;;5.97;2.67;;;26.00;99.90;;;;;;5046241;28;20234;-73
2024/04/08 11:49:26;;;;;;;6.90;2.70;;;26.10;99.90;;;;;;5062177;28;20461;-74
2024/04/08 11:51:51;;;;;;;5.77;2.90;;;26.30;99.90;;;;;;5061983;28;21035;-74
2024/04/08 11:54:18;;;;;;;11.03;2.50;;;26.40;99.90;;;;;;5060964;28;20225;-74
2024/04/08 11:56:44;;;;;;;5.50;2.80;;;26.40;99.90;;;;;;5063564;28;20233;-74
2024/04/08 11:59:10;;;;;;;4.85;2.60;;;26.50;99.90;;;;;;5062518;28;20469;-73
2024/04/08 12:01:36;;;;;;;4.87;2.93;;;26.50;99.90;;;;;;5059087;28;20221;-73
2024/04/08 12:04:03;;;;;;;8.30;2.88;;;26.60;99.90;;;;;;5077520;28;20215;-74
2024/04/08 12:06:29;;;;;;;10.33;3.43;;;26.70;99.90;;;;;;5058011;28;20222;-72
2024/04/08 12:08:56;;;;;;;9.15;3.15;;;26.70;99.90;;;;;;5061872;28;20222;-74
2024/04/08 12:11:23;;;;;;;4.20;3.00;;;26.60;99.90;;;;;;5060912;28;21289;-74
2024/04/08 12:13:49;;;;;;;7.53;2.83;;;26.80;99.90;;;;;;5042772;28;20206;-73
2024/04/08 12:16:15;;;;;;;5.30;2.50;;;26.90;99.90;;;;;;5060735;28;20230;-74
2024/04/08 12:18:42;;;;;;;4.78;2.90;;;26.90;99.90;;;;;;5059312;28;20226;-72
2024/04/08 12:21:08;;;;;;;7.35;2.45;;;27.00;99.90;;;;;;5059982;28;20608;-74
2024/04/08 12:23:34;;;;;;;8.23;2.53;;;27.00;99.90;;;;;;5058603;28;20313;-74
2024/04/08 12:26:00;;;;;;;6.93;3.35;;;27.00;99.90;;;;;;5059195;28;20391;-72
2024/04/08 12:28:26;;;;;;;5.05;2.55;;;27.10;99.80;;;;;;5057449;28;20287;-72
2024/04/08 12:30:53;;;;;;;4.63;3.00;;;27.20;99.60;;;;;;5060677;28;20222;-72
2024/04/08 12:33:19;;;;;;;5.15;3.05;;;27.10;99.30;;;;;;5060894;28;20227;-73
2024/04/08 12:35:45;;;;;;;8.43;4.40;;;27.30;99.60;;;;;;5058866;28;21769;-73
2024/04/08 12:38:13;;;;;;;4.28;3.47;;;27.20;99.70;;;;;;5062777;28;20561;-73
2024/04/08 12:40:42;;;;;;;4.50;2.33;;;27.10;99.30;;;;;;5038345;28;20214;-75